Home   Weather   Netherlands   Amsterdam   Past weeks
Flag for Netherlands

Past Weather in Amsterdam, Netherlands — Yesterday and Last 2 Weeks

Currently: 50 °F. Passing clouds. (Weather station: Amsterdam Schiphol Airport, Netherlands). See more current weather

Past Weather in Amsterdam — Graph

°F

Amsterdam Temperature Yesterday

Maximum temperature yesterday: 54 °F (at 2:25 pm)
Minimum temperature yesterday: 32 °F (at 4:55 am)
Average temperature yesterday: 44 °F

High & Low Weather Summary for the Past Weeks

 TemperatureHumidityPressure
High54 °F (Apr 16, 2:25 pm)100% (Apr 6, 7:55 pm)30.51 "Hg (Apr 6, 7:55 pm)
Low30 °F (Apr 13, 3:25 am)38% (Apr 16, 2:25 pm)29.71 "Hg (Apr 5, 5:55 am)
Average41 °F74%30.18 "Hg
* Reported Apr 2 3:25 pm — Apr 17 3:55 pm, Amsterdam. Weather by CustomWeather, © 2021

Note: Actual official high and low records may vary slightly from our data, if they occured in-between our weather recording intervals... More about our weather records

Amsterdam Weather History for the Previous 24 Hours

Scroll right to see more
 ConditionsComfort  
Time TempWeatherWind HumidityBarometerVisibility
3:55 pm
Sat, Apr 17
50 °FPassing clouds.10 mph54%30.30 "HgN/A
3:25 pm54 °FPassing clouds.10 mph51%30.30 "HgN/A
2:55 pm52 °FPassing clouds.12 mph50%30.30 "HgN/A
2:25 pm52 °FPassing clouds.10 mph50%30.30 "HgN/A
1:55 pm52 °FPassing clouds.10 mph47%30.30 "HgN/A
1:25 pm52 °FPassing clouds.9 mph47%30.30 "HgN/A
12:55 pm52 °FPassing clouds.10 mph47%30.33 "HgN/A
12:25 pm50 °FPassing clouds.10 mph47%30.33 "HgN/A
11:55 am50 °FPassing clouds.12 mph54%30.33 "HgN/A
11:25 am50 °FPassing clouds.12 mph58%30.36 "HgN/A
10:55 am50 °FPassing clouds.12 mph50%30.36 "HgN/A
10:25 am48 °FPassing clouds.8 mph62%30.36 "HgN/A
9:55 am46 °FPassing clouds.9 mph66%30.36 "HgN/A
9:25 am45 °FPassing clouds.9 mph76%30.36 "HgN/A
8:55 am45 °FPassing clouds.7 mph81%30.36 "HgN/A
8:25 am41 °FPassing clouds.6 mph87%30.36 "HgN/A
7:55 am37 °FSunny.6 mph93%30.36 "Hg10 mi
7:25 am34 °FSunny.6 mph93%30.36 "Hg10 mi
6:55 am34 °FPassing clouds.5 mph93%30.36 "HgN/A
6:25 am34 °FClear.5 mph93%30.36 "Hg10 mi
5:55 am36 °FClear.3 mph93%30.36 "Hg10 mi
5:25 am37 °FClear.5 mph87%30.36 "Hg10 mi
4:55 am37 °FClear.5 mph87%30.36 "Hg10 mi
4:25 am37 °FClear.5 mph87%30.36 "Hg10 mi
3:55 am37 °FPassing clouds.6 mph87%30.36 "HgN/A
3:25 am39 °FPassing clouds.6 mph81%30.36 "HgN/A
2:55 am39 °FPassing clouds.7 mph81%30.36 "HgN/A
2:25 am39 °FPassing clouds.8 mph81%30.36 "HgN/A
1:55 am39 °FClear.7 mph81%30.39 "Hg10 mi
1:25 am41 °FPassing clouds.8 mph76%30.39 "HgN/A
12:55 am41 °FPassing clouds.7 mph76%30.39 "HgN/A
12:25 am41 °FClear.9 mph76%30.39 "Hg10 mi
11:55 pm
Fri, Apr 16
43 °FPassing clouds.8 mph76%30.39 "HgN/A
11:25 pm43 °FPassing clouds.8 mph76%30.36 "HgN/A
10:55 pm43 °FClear.10 mph76%30.36 "Hg10 mi
10:25 pm45 °FPassing clouds.9 mph71%30.36 "HgN/A
9:55 pm45 °FPassing clouds.9 mph71%30.36 "HgN/A
9:25 pm46 °FPassing clouds.10 mph71%30.36 "HgN/A
8:55 pm46 °FPassing clouds.10 mph71%30.36 "HgN/A
8:25 pm46 °FPassing clouds.12 mph71%30.36 "HgN/A
7:55 pm48 °FPassing clouds.13 mph66%30.36 "HgN/A
7:25 pm50 °FPassing clouds.12 mph58%30.36 "HgN/A
6:55 pm50 °FPassing clouds.15 mph54%30.36 "HgN/A
6:25 pm52 °FPassing clouds.13 mph47%30.36 "HgN/A
5:55 pm52 °FPassing clouds.14 mph47%30.36 "HgN/A
5:25 pm52 °FPassing clouds.14 mph47%30.36 "HgN/A
Weather by CustomWeather, © 2021

See weather overview